createdAt,value
2022-08-07T00:00:19.178Z,100.00
2022-08-07T00:03:04.841Z,100.00
2022-08-07T00:05:53.096Z,100.00
2022-08-07T00:08:39.031Z,100.00
2022-08-07T00:11:29.916Z,100.00
2022-08-07T00:14:18.092Z,100.00
2022-08-07T00:17:04.047Z,100.00
2022-08-07T00:20:01.665Z,100.00
2022-08-07T00:22:51.744Z,100.00
2022-08-07T00:25:41.341Z,100.00
2022-08-07T00:28:33.521Z,100.00
2022-08-07T00:31:19.339Z,100.00
2022-08-07T00:34:04.295Z,100.00
2022-08-07T00:36:54.192Z,100.00
2022-08-07T00:39:45.013Z,100.00
2022-08-07T00:42:32.373Z,100.00
2022-08-07T00:45:22.288Z,100.00
2022-08-07T00:48:10.826Z,100.00
2022-08-07T00:50:56.778Z,100.00
2022-08-07T00:53:50.899Z,100.00
2022-08-07T00:56:40.441Z,100.00
2022-08-07T00:59:35.406Z,100.00
2022-08-07T01:02:28.673Z,100.00
2022-08-07T01:05:19.467Z,100.00
2022-08-07T01:08:05.807Z,100.00
2022-08-07T01:10:56.518Z,100.00
2022-08-07T01:13:42.097Z,100.00
2022-08-07T01:16:43.029Z,100.00
2022-08-07T01:19:32.285Z,100.00
2022-08-07T01:22:22.769Z,100.00
2022-08-07T01:25:39.906Z,100.00
2022-08-07T01:28:21.351Z,100.00
2022-08-07T01:31:09.626Z,100.00
2022-08-07T01:34:02.010Z,100.00
2022-08-07T01:36:52.932Z,100.00
2022-08-07T01:39:47.098Z,100.00
2022-08-07T01:42:58.760Z,100.00
2022-08-07T01:45:47.978Z,100.00
2022-08-07T01:48:41.630Z,100.00
2022-08-07T01:52:03.754Z,100.00
2022-08-07T01:54:43.823Z,100.00
2022-08-07T01:58:06.943Z,100.00
2022-08-07T02:00:49.018Z,100.00
2022-08-07T02:03:48.874Z,100.00
2022-08-07T02:06:40.672Z,100.00
2022-08-07T02:09:33.904Z,100.00
2022-08-07T02:12:41.686Z,100.00
2022-08-07T02:15:39.494Z,100.00
2022-08-07T02:18:27.741Z,100.00
2022-08-07T02:21:16.675Z,100.00
2022-08-07T02:24:03.787Z,100.00
2022-08-07T02:26:50.004Z,100.00
2022-08-07T02:29:48.790Z,100.00
2022-08-07T02:33:03.908Z,100.00
2022-08-07T02:36:29.723Z,100.00
2022-08-07T02:38:59.188Z,100.00
2022-08-07T02:41:54.199Z,100.00
2022-08-07T02:44:47.826Z,100.00
2022-08-07T02:47:45.264Z,100.00
2022-08-07T02:50:41.194Z,100.00
2022-08-07T02:53:38.329Z,100.00
2022-08-07T02:56:31.346Z,100.00
2022-08-07T02:59:24.086Z,99.95
2022-08-07T03:02:15.433Z,99.84
2022-08-07T03:05:05.008Z,99.57
2022-08-07T03:08:04.841Z,99.27
2022-08-07T03:10:55.736Z,98.81
2022-08-07T03:13:49.870Z,98.52
2022-08-07T03:16:38.467Z,98.40
2022-08-07T03:19:28.917Z,98.34
2022-08-07T03:22:19.268Z,98.22
2022-08-07T03:25:10.317Z,97.95
2022-08-07T03:28:09.595Z,97.39
2022-08-07T03:31:18.978Z,96.66
2022-08-07T03:34:18.854Z,95.99
2022-08-07T03:37:12.178Z,96.46
2022-08-07T03:40:15.167Z,96.86
2022-08-07T03:43:02.316Z,97.15
2022-08-07T03:45:51.144Z,97.27
2022-08-07T03:48:45.429Z,97.33
2022-08-07T03:52:00.994Z,96.90
2022-08-07T03:54:54.915Z,96.81
2022-08-07T03:58:34.438Z,96.37
2022-08-07T04:01:00.244Z,96.17
2022-08-07T04:03:53.780Z,96.46
2022-08-07T04:06:43.610Z,96.29
2022-08-07T04:09:44.800Z,96.41
2022-08-07T04:12:38.387Z,96.18
2022-08-07T04:15:23.928Z,96.51
2022-08-07T04:18:58.299Z,96.91
2022-08-07T04:21:19.226Z,96.27
2022-08-07T04:24:07.858Z,96.22
2022-08-07T04:26:57.406Z,95.53
2022-08-07T04:30:01.588Z,94.59
2022-08-07T04:32:58.378Z,93.30
2022-08-07T04:35:51.289Z,91.79
2022-08-07T04:38:42.445Z,89.71
2022-08-07T04:41:28.137Z,88.29
2022-08-07T04:44:18.893Z,87.60
2022-08-07T04:47:11.292Z,87.23
2022-08-07T04:50:30.833Z,87.40
2022-08-07T04:54:01.918Z,87.73
2022-08-07T04:58:24.427Z,87.30
2022-08-07T05:00:11.844Z,86.37
2022-08-07T05:04:00.185Z,85.96
2022-08-07T05:07:19.596Z,86.74
2022-08-07T05:10:15.967Z,86.70
2022-08-07T05:14:56.261Z,86.54
2022-08-07T05:16:37.618Z,85.86
2022-08-07T05:19:44.703Z,84.21
2022-08-07T05:22:34.928Z,83.00
2022-08-07T05:25:26.335Z,82.65
2022-08-07T05:28:29.594Z,81.71
2022-08-07T05:31:17.392Z,80.67
2022-08-07T05:34:10.955Z,79.66
2022-08-07T05:36:58.455Z,78.30
2022-08-07T05:40:13.423Z,77.63
2022-08-07T05:42:56.224Z,79.53
2022-08-07T05:45:47.852Z,80.06
2022-08-07T05:48:37.630Z,79.96
2022-08-07T05:51:46.420Z,80.16
2022-08-07T05:54:44.528Z,81.53
2022-08-07T05:57:42.046Z,82.99
2022-08-07T06:00:30.891Z,83.78
2022-08-07T06:03:22.332Z,85.08
2022-08-07T06:06:09.478Z,87.60
2022-08-07T06:08:56.541Z,90.33
2022-08-07T06:11:43.996Z,93.04
2022-08-07T06:14:30.295Z,95.31
2022-08-07T06:17:22.349Z,97.79
2022-08-07T06:20:12.338Z,99.09
2022-08-07T06:23:02.430Z,100.00
2022-08-07T06:26:05.271Z,100.00
2022-08-07T06:28:54.372Z,100.00
2022-08-07T06:31:49.647Z,100.00
2022-08-07T06:34:37.439Z,100.00
2022-08-07T06:37:26.208Z,100.00
2022-08-07T06:40:35.207Z,100.00
2022-08-07T06:43:24.330Z,100.00
2022-08-07T06:46:31.319Z,100.00
2022-08-07T06:49:20.810Z,100.00
2022-08-07T06:52:10.317Z,100.00
2022-08-07T06:55:33.951Z,100.00
2022-08-07T06:58:06.134Z,100.00
2022-08-07T07:01:06.022Z,100.00
2022-08-07T07:03:58.176Z,100.00
2022-08-07T07:07:18.885Z,100.00
2022-08-07T07:10:13.383Z,100.00
2022-08-07T07:13:10.509Z,100.00
2022-08-07T07:16:02.717Z,100.00
2022-08-07T07:18:51.752Z,100.00
2022-08-07T07:22:12.198Z,100.00
2022-08-07T07:25:02.634Z,100.00
2022-08-07T07:27:56.178Z,100.00
2022-08-07T07:30:55.402Z,100.00
2022-08-07T07:33:42.747Z,100.00
2022-08-07T07:36:37.181Z,100.00
2022-08-07T07:39:26.777Z,100.00
2022-08-07T07:42:33.489Z,100.00
2022-08-07T07:46:35.391Z,100.00
2022-08-07T07:48:34.979Z,100.00
2022-08-07T07:51:22.736Z,100.00
2022-08-07T07:54:08.319Z,100.00
2022-08-07T07:56:57.436Z,100.00
2022-08-07T07:59:52.320Z,100.00
2022-08-07T08:03:04.852Z,100.00
2022-08-07T08:05:54.870Z,100.00
2022-08-07T08:08:42.811Z,100.00
2022-08-07T08:11:59.937Z,100.00
2022-08-07T08:14:36.520Z,100.00
2022-08-07T08:17:57.270Z,100.00
2022-08-07T08:20:32.482Z,100.00
2022-08-07T08:23:38.271Z,100.00
2022-08-07T08:26:42.716Z,100.00
2022-08-07T08:29:56.214Z,100.00
2022-08-07T08:32:49.119Z,100.00
2022-08-07T08:35:39.348Z,100.00
2022-08-07T08:38:40.603Z,100.00
2022-08-07T08:41:57.804Z,100.00
2022-08-07T08:45:13.271Z,100.00
2022-08-07T08:48:14.793Z,100.00
2022-08-07T08:51:14.273Z,100.00
2022-08-07T08:54:29.485Z,100.00
2022-08-07T08:57:26.201Z,100.00
2022-08-07T09:00:16.751Z,100.00
2022-08-07T09:03:21.640Z,100.00
2022-08-07T09:06:40.372Z,99.23
2022-08-07T09:10:05.758Z,98.91
2022-08-07T09:13:14.841Z,99.08
2022-08-07T09:16:23.194Z,98.92
2022-08-07T09:19:51.570Z,99.32
2022-08-07T09:24:31.836Z,99.76
2022-08-07T09:25:53.465Z,99.93
2022-08-07T09:30:01.293Z,99.75
2022-08-07T09:32:26.327Z,98.79
2022-08-07T09:36:04.630Z,99.35
2022-08-07T09:38:58.465Z,99.66
2022-08-07T09:42:17.148Z,99.27
2022-08-07T09:47:42.521Z,98.05
2022-08-07T09:50:00.406Z,97.45
2022-08-07T09:52:34.464Z,97.85
2022-08-07T09:56:04.207Z,96.98
2022-08-07T09:58:56.065Z,96.77
2022-08-07T10:02:05.551Z,96.55
2022-08-07T10:05:59.984Z,96.14
2022-08-07T10:09:01.610Z,95.79
2022-08-07T10:12:15.110Z,96.33
2022-08-07T10:15:15.153Z,96.34
2022-08-07T10:18:12.485Z,96.89
2022-08-07T10:21:50.497Z,97.34
2022-08-07T10:24:50.003Z,97.31
2022-08-07T10:27:51.142Z,96.95
2022-08-07T10:30:48.553Z,97.09
2022-08-07T10:34:06.331Z,97.19
2022-08-07T10:37:06.248Z,97.56
2022-08-07T10:40:12.642Z,97.64
2022-08-07T10:43:12.298Z,96.98
2022-08-07T10:46:04.579Z,97.70
2022-08-07T10:49:13.728Z,97.84
2022-08-07T10:52:33.962Z,98.20
2022-08-07T10:55:38.250Z,98.20
2022-08-07T10:58:59.819Z,98.24
2022-08-07T11:02:04.877Z,98.07
2022-08-07T11:05:15.779Z,98.08
2022-08-07T11:08:36.387Z,98.03
2022-08-07T11:11:42.749Z,97.84
2022-08-07T11:15:00.607Z,98.13
2022-08-07T11:17:54.099Z,97.14
2022-08-07T11:20:55.199Z,96.31
2022-08-07T11:23:52.267Z,96.18
2022-08-07T11:26:55.817Z,96.08
2022-08-07T11:30:10.233Z,95.79
2022-08-07T11:33:19.110Z,95.69
2022-08-07T11:36:42.423Z,95.01
2022-08-07T11:40:03.485Z,94.24
2022-08-07T11:42:58.074Z,93.52
2022-08-07T11:46:14.244Z,92.65
2022-08-07T11:49:50.856Z,92.21
2022-08-07T11:52:45.468Z,92.57
2022-08-07T11:56:15.705Z,93.01
2022-08-07T12:00:08.930Z,93.83
2022-08-07T12:03:09.870Z,93.74
2022-08-07T12:06:38.981Z,93.23
2022-08-07T12:09:33.676Z,92.36
2022-08-07T12:12:28.048Z,91.77
2022-08-07T12:15:35.736Z,92.25
2022-08-07T12:18:57.533Z,92.11
2022-08-07T12:22:37.853Z,92.31
2022-08-07T12:26:21.931Z,92.38
2022-08-07T12:29:08.458Z,91.94
2022-08-07T12:32:04.616Z,92.12
2022-08-07T12:34:55.698Z,91.78
2022-08-07T12:38:09.413Z,92.15
2022-08-07T12:40:53.702Z,91.80
2022-08-07T12:44:03.991Z,91.01
2022-08-07T12:47:02.443Z,90.57
2022-08-07T12:50:38.460Z,90.68
2022-08-07T12:54:02.685Z,91.75
2022-08-07T12:56:55.005Z,92.70
2022-08-07T12:59:54.329Z,92.76
2022-08-07T13:03:11.920Z,93.58
2022-08-07T13:07:00.629Z,93.70
2022-08-07T13:10:40.339Z,93.50
2022-08-07T13:13:55.403Z,93.94
2022-08-07T13:17:03.361Z,93.28
2022-08-07T13:20:00.495Z,92.54
2022-08-07T13:23:59.909Z,91.88
2022-08-07T13:26:21.647Z,91.61
2022-08-07T13:29:34.651Z,91.42
2022-08-07T13:32:49.957Z,92.25
2022-08-07T13:36:05.397Z,93.08
2022-08-07T13:39:11.106Z,93.69
2022-08-07T13:42:00.459Z,93.55
2022-08-07T13:44:55.248Z,93.45
2022-08-07T13:48:05.474Z,92.08
2022-08-07T13:51:00.583Z,90.77
2022-08-07T13:54:01.673Z,89.19
2022-08-07T13:56:51.732Z,87.62
2022-08-07T13:59:44.310Z,86.36
2022-08-07T14:02:49.301Z,85.51
2022-08-07T14:05:38.113Z,84.48
2022-08-07T14:08:24.970Z,83.59
2022-08-07T14:11:15.344Z,83.23
2022-08-07T14:14:14.202Z,82.90
2022-08-07T14:17:32.329Z,83.81
2022-08-07T14:20:42.314Z,84.73
2022-08-07T14:23:59.310Z,85.33
2022-08-07T14:26:50.236Z,85.03
2022-08-07T14:30:09.468Z,86.19
2022-08-07T14:32:55.164Z,86.30
2022-08-07T14:35:45.327Z,87.17
2022-08-07T14:38:34.181Z,87.50
2022-08-07T14:41:34.119Z,87.65
2022-08-07T14:44:34.319Z,87.15
2022-08-07T14:47:20.919Z,86.54
2022-08-07T14:50:11.323Z,85.84
2022-08-07T14:53:07.751Z,85.75
2022-08-07T14:55:55.803Z,85.89
2022-08-07T14:58:54.927Z,86.93
2022-08-07T15:01:42.814Z,87.67
2022-08-07T15:04:53.191Z,87.66
2022-08-07T15:07:51.166Z,88.09
2022-08-07T15:10:41.398Z,87.76
2022-08-07T15:13:57.056Z,87.49
2022-08-07T15:16:55.079Z,87.83
2022-08-07T15:20:31.651Z,87.91
2022-08-07T15:22:57.487Z,87.80
2022-08-07T15:25:49.956Z,88.25
2022-08-07T15:28:47.237Z,87.97
2022-08-07T15:31:57.691Z,88.06
2022-08-07T15:38:17.995Z,88.05
2022-08-07T15:41:23.732Z,88.89
2022-08-07T15:44:23.492Z,88.76
2022-08-07T15:47:16.881Z,89.09
2022-08-07T15:50:09.474Z,89.70
2022-08-07T15:53:51.782Z,90.29
2022-08-07T15:56:41.082Z,90.47
2022-08-07T15:59:39.594Z,90.64
2022-08-07T16:02:40.548Z,90.83
2022-08-07T16:05:31.400Z,91.08
2022-08-07T16:08:33.394Z,91.24
2022-08-07T16:11:43.212Z,91.64
2022-08-07T16:14:53.561Z,91.72
2022-08-07T16:18:02.190Z,92.00
2022-08-07T16:22:01.384Z,92.32
2022-08-07T16:25:02.197Z,92.53
2022-08-07T16:30:07.246Z,93.03
2022-08-07T16:31:57.678Z,93.58
2022-08-07T16:34:48.301Z,93.87
2022-08-07T16:38:06.140Z,94.19
2022-08-07T16:41:18.889Z,94.75
2022-08-07T16:44:53.899Z,94.99
2022-08-07T16:47:53.032Z,95.15
2022-08-07T16:51:07.422Z,95.37
2022-08-07T16:54:20.477Z,95.78
2022-08-07T16:58:02.231Z,96.26
2022-08-07T17:00:50.203Z,96.54
2022-08-07T17:03:59.898Z,96.80
2022-08-07T17:07:02.953Z,96.96
2022-08-07T17:10:09.282Z,97.38
2022-08-07T17:13:41.428Z,97.76
2022-08-07T17:16:56.143Z,97.89
2022-08-07T17:20:02.934Z,97.71
2022-08-07T17:23:32.389Z,98.00
2022-08-07T17:26:30.692Z,98.33
2022-08-07T17:30:15.339Z,98.54
2022-08-07T17:34:10.083Z,98.84
2022-08-07T17:36:30.283Z,98.89
2022-08-07T17:39:58.237Z,99.10
2022-08-07T17:42:36.037Z,99.25
2022-08-07T17:45:49.767Z,99.29
2022-08-07T17:49:09.132Z,99.86
2022-08-07T17:52:12.854Z,100.00
2022-08-07T17:55:07.391Z,100.00
2022-08-07T17:58:07.843Z,100.00
2022-08-07T18:00:56.210Z,100.00
2022-08-07T18:04:16.650Z,100.00
2022-08-07T18:07:20.724Z,100.00
2022-08-07T18:10:33.083Z,100.00
2022-08-07T18:13:40.845Z,100.00
2022-08-07T18:16:33.198Z,100.00
2022-08-07T18:21:12.799Z,100.00
2022-08-07T18:22:33.259Z,100.00
2022-08-07T18:25:40.823Z,100.00
2022-08-07T18:28:58.622Z,100.00
2022-08-07T18:32:16.958Z,100.00
2022-08-07T18:35:11.635Z,100.00
2022-08-07T18:38:57.071Z,100.00
2022-08-07T18:41:47.580Z,100.00
2022-08-07T18:45:44.469Z,100.00
2022-08-07T18:48:00.840Z,100.00
2022-08-07T18:52:25.439Z,100.00
2022-08-07T18:54:32.734Z,100.00
2022-08-07T18:57:59.564Z,100.00
2022-08-07T19:01:00.897Z,100.00
2022-08-07T19:03:52.119Z,100.00
2022-08-07T19:06:55.921Z,100.00
2022-08-07T19:09:55.919Z,100.00
2022-08-07T19:13:11.817Z,100.00
2022-08-07T19:17:01.245Z,100.00
2022-08-07T19:19:09.460Z,100.00
2022-08-07T19:22:31.213Z,100.00
2022-08-07T19:26:23.559Z,100.00
2022-08-07T19:28:30.700Z,100.00
2022-08-07T19:32:10.323Z,100.00
2022-08-07T19:34:58.606Z,100.00
2022-08-07T19:37:56.894Z,100.00
2022-08-07T19:40:50.797Z,100.00
2022-08-07T19:43:48.913Z,100.00
2022-08-07T19:46:57.883Z,100.00
2022-08-07T19:49:58.621Z,100.00
2022-08-07T19:52:58.407Z,100.00
2022-08-07T19:55:57.925Z,100.00
2022-08-07T19:58:53.180Z,100.00
2022-08-07T20:01:52.694Z,100.00
2022-08-07T20:04:45.242Z,100.00
2022-08-07T20:07:46.350Z,100.00
2022-08-07T20:10:54.558Z,100.00
2022-08-07T20:13:52.534Z,100.00
2022-08-07T20:16:37.681Z,100.00
2022-08-07T20:19:48.278Z,100.00
2022-08-07T20:22:45.033Z,100.00
2022-08-07T20:25:33.552Z,100.00
2022-08-07T20:28:29.405Z,100.00
2022-08-07T20:31:21.283Z,100.00
2022-08-07T20:34:09.466Z,100.00
2022-08-07T20:36:57.792Z,100.00
2022-08-07T20:40:02.716Z,100.00
2022-08-07T20:42:56.402Z,100.00
2022-08-07T20:46:27.448Z,100.00
2022-08-07T20:48:58.078Z,100.00
2022-08-07T20:51:56.719Z,100.00
2022-08-07T20:54:45.698Z,100.00
2022-08-07T20:57:47.558Z,100.00
2022-08-07T21:00:55.513Z,100.00
2022-08-07T21:04:01.107Z,100.00
2022-08-07T21:06:55.095Z,100.00
2022-08-07T21:09:52.863Z,100.00
2022-08-07T21:12:47.867Z,100.00
2022-08-07T21:15:58.383Z,100.00
2022-08-07T21:18:46.262Z,100.00
2022-08-07T21:21:56.937Z,100.00
2022-08-07T21:25:12.521Z,100.00
2022-08-07T21:28:49.268Z,100.00
2022-08-07T21:32:46.870Z,100.00
2022-08-07T21:35:34.847Z,100.00
2022-08-07T21:39:00.405Z,100.00
2022-08-07T21:42:46.461Z,100.00
2022-08-07T21:46:11.078Z,100.00
2022-08-07T21:48:56.353Z,100.00
2022-08-07T21:52:12.783Z,100.00
2022-08-07T21:55:27.894Z,100.00
2022-08-07T21:58:30.172Z,100.00
2022-08-07T22:02:10.987Z,100.00
2022-08-07T22:04:51.077Z,100.00
2022-08-07T22:07:58.922Z,100.00
2022-08-07T22:10:49.137Z,100.00
2022-08-07T22:13:51.233Z,100.00
2022-08-07T22:16:47.586Z,100.00
2022-08-07T22:19:40.901Z,100.00
2022-08-07T22:22:36.636Z,100.00
2022-08-07T22:25:39.197Z,100.00
2022-08-07T22:28:48.515Z,100.00
2022-08-07T22:32:05.267Z,100.00
2022-08-07T22:34:57.932Z,100.00
2022-08-07T22:38:03.255Z,100.00
2022-08-07T22:41:13.789Z,100.00
2022-08-07T22:44:04.501Z,100.00
2022-08-07T22:47:17.173Z,100.00
2022-08-07T22:50:05.075Z,100.00
2022-08-07T22:53:15.246Z,100.00
2022-08-07T22:56:08.857Z,100.00
2022-08-07T22:59:13.316Z,100.00
2022-08-07T23:02:34.383Z,100.00
2022-08-07T23:06:10.234Z,100.00
2022-08-07T23:08:46.276Z,100.00
2022-08-07T23:11:35.098Z,100.00
2022-08-07T23:14:48.332Z,100.00
2022-08-07T23:18:00.091Z,100.00
2022-08-07T23:21:10.054Z,100.00
2022-08-07T23:24:33.483Z,100.00
2022-08-07T23:28:21.156Z,100.00
2022-08-07T23:31:13.924Z,100.00
2022-08-07T23:34:35.327Z,100.00
2022-08-07T23:37:30.762Z,100.00
2022-08-07T23:40:39.598Z,100.00
2022-08-07T23:43:43.070Z,100.00
2022-08-07T23:46:30.533Z,100.00
2022-08-07T23:49:49.854Z,100.00
2022-08-07T23:53:05.739Z,100.00
2022-08-07T23:56:37.885Z,100.00
